1CO3 weather

Bellmore Farms Airport
Nunn, Colorado, United States

Public forecast

Using degrees Fahrenheit for public forecast. Weather courtesy of forecast.io.

Closest aviation weather report (METAR) to Bellmore Farms Airport

Closest report is Greeley–Weld County Airport, 17.7 nm (32.8 km) SSE. Retrieved 2020/04/03 23:56 UTC (9 minutes ago):

KGXY 032356Z AUTO 15013G16KT 10SM SCT065 07/M08 A3001 RMK AO2 SLP199 T00671078 10078 20011 56019

Closest aviation forecast (TAF) to Bellmore Farms Airport

Closest forecast is Cheyenne Regional Jerry Olson Field, 27.1 nm (50.2 km) N. Retrieved 2020-04-04 00:30 UTC (0 seconds ago):

TAF KCYS 032327Z 0400/0424 18015G25KT P6SM SCT035 FM040200 17008KT P6SM SCT035 FM041700 22015G22KT P6SM BKN100